createdAt,value
2022-08-27T00:03:04.015Z,97006.00
2022-08-27T00:08:06.532Z,97004.00
2022-08-27T00:13:08.439Z,97011.00
2022-08-27T00:18:09.835Z,97022.00
2022-08-27T00:23:10.895Z,97019.00
2022-08-27T00:28:12.350Z,97022.00
2022-08-27T00:33:13.483Z,97018.00
2022-08-27T00:38:14.857Z,97015.00
2022-08-27T00:43:25.206Z,97017.00
2022-08-27T00:48:29.692Z,97006.00
2022-08-27T00:53:32.804Z,96999.00
2022-08-27T00:58:46.005Z,96989.00
2022-08-27T01:03:50.578Z,96994.00
2022-08-27T01:08:56.468Z,97001.00
2022-08-27T01:13:59.610Z,97007.00
2022-08-27T01:19:06.885Z,97000.00
2022-08-27T01:24:44.864Z,96985.00
2022-08-27T01:29:47.139Z,96986.00
2022-08-27T01:34:48.968Z,96982.00
2022-08-27T01:39:50.265Z,96982.00
2022-08-27T01:44:57.812Z,96984.00
2022-08-27T01:50:00.206Z,96988.00
2022-08-27T01:55:01.697Z,96985.00
2022-08-27T02:00:08.825Z,96980.00
2022-08-27T02:05:13.303Z,96979.00
2022-08-27T02:10:22.994Z,96981.00
2022-08-27T02:15:25.360Z,96973.00
2022-08-27T02:20:29.316Z,96978.00
2022-08-27T02:25:31.000Z,96976.00
2022-08-27T02:30:33.624Z,96963.00
2022-08-27T02:35:43.146Z,96971.00
2022-08-27T02:40:44.075Z,96960.00
2022-08-27T02:45:45.317Z,96960.00
2022-08-27T02:50:46.354Z,96964.00
2022-08-27T02:55:47.300Z,96963.00
2022-08-27T03:00:48.173Z,96969.00
2022-08-27T03:05:49.469Z,96965.00
2022-08-27T03:10:51.101Z,96969.00
2022-08-27T03:15:52.846Z,96965.00
2022-08-27T03:20:55.597Z,96972.00
2022-08-27T03:25:59.159Z,96969.00
2022-08-27T03:31:03.342Z,96971.00
2022-08-27T03:36:06.881Z,96975.00
2022-08-27T03:41:07.674Z,96971.00
2022-08-27T03:46:08.776Z,96971.00
2022-08-27T03:51:12.679Z,96972.00
2022-08-27T03:56:14.263Z,96976.00
2022-08-27T04:01:16.389Z,96977.00
2022-08-27T04:06:17.457Z,96980.00
2022-08-27T04:11:18.402Z,96974.00
2022-08-27T04:16:19.288Z,96969.00
2022-08-27T04:21:22.356Z,96968.00
2022-08-27T04:26:23.246Z,96974.00
2022-08-27T04:31:25.434Z,96979.00
2022-08-27T04:36:26.740Z,96976.00
2022-08-27T04:41:28.601Z,96979.00
2022-08-27T04:46:32.618Z,96990.00
2022-08-27T04:51:34.264Z,96995.00
2022-08-27T04:56:37.392Z,96987.00
2022-08-27T05:01:42.291Z,96994.00
2022-08-27T05:06:45.315Z,96998.00
2022-08-27T05:11:47.159Z,97000.00
2022-08-27T05:16:48.155Z,97006.00
2022-08-27T05:21:51.032Z,97004.00
2022-08-27T05:26:52.025Z,97013.00
2022-08-27T05:31:54.639Z,96995.00
2022-08-27T05:36:55.688Z,97000.00
2022-08-27T05:41:57.327Z,97018.00
2022-08-27T05:46:58.257Z,97009.00
2022-08-27T05:51:59.314Z,97018.00
2022-08-27T05:57:00.190Z,97019.00
2022-08-27T06:02:02.063Z,97008.00
2022-08-27T06:07:03.699Z,97010.00
2022-08-27T06:12:06.101Z,97004.00
2022-08-27T06:17:07.033Z,97011.00
2022-08-27T06:22:10.395Z,97013.00
2022-08-27T06:27:15.457Z,97008.00
2022-08-27T06:32:16.300Z,97012.00
2022-08-27T06:37:17.400Z,97005.00
2022-08-27T06:42:18.233Z,97005.00
2022-08-27T06:47:22.053Z,96991.00
2022-08-27T06:52:22.913Z,96988.00
2022-08-27T06:57:23.995Z,96989.00
2022-08-27T07:02:25.310Z,96994.00
2022-08-27T07:07:27.237Z,96990.00
2022-08-27T07:12:35.492Z,96990.00
2022-08-27T07:17:36.415Z,97012.00
2022-08-27T07:22:40.036Z,97016.00
2022-08-27T07:27:41.099Z,97022.00
2022-08-27T07:32:45.297Z,97023.00
2022-08-27T07:37:46.225Z,97027.00
2022-08-27T07:43:05.767Z,97044.00
2022-08-27T07:48:06.676Z,97048.00
2022-08-27T07:53:07.860Z,97050.00
2022-08-27T07:58:11.540Z,97061.00
2022-08-27T08:03:13.404Z,97057.00
2022-08-27T08:08:15.106Z,97069.00
2022-08-27T08:13:17.820Z,97060.00
2022-08-27T08:18:18.846Z,97077.00
2022-08-27T08:23:21.107Z,97072.00
2022-08-27T08:28:21.907Z,97088.00
2022-08-27T08:33:23.615Z,97085.00
2022-08-27T08:38:25.373Z,97095.00
2022-08-27T08:43:36.790Z,97092.00
2022-08-27T08:48:43.047Z,97093.00
2022-08-27T08:53:52.283Z,97087.00
2022-08-27T08:59:02.694Z,97092.00
2022-08-27T09:04:06.517Z,97094.00
2022-08-27T09:09:53.816Z,97094.00
2022-08-27T09:15:05.034Z,97103.00
2022-08-27T09:20:07.853Z,97107.00
2022-08-27T09:25:31.066Z,97115.00
2022-08-27T09:30:42.434Z,97107.00
2022-08-27T09:35:45.812Z,97115.00
2022-08-27T09:40:51.184Z,97126.00
2022-08-27T09:45:55.777Z,97122.00
2022-08-27T09:51:01.790Z,97130.00
2022-08-27T09:56:09.212Z,97123.00
2022-08-27T10:01:22.253Z,97125.00
2022-08-27T10:06:28.534Z,97119.00
2022-08-27T10:11:35.299Z,97121.00
2022-08-27T10:17:04.780Z,97119.00
2022-08-27T10:22:33.301Z,97118.00
2022-08-27T10:29:20.278Z,97114.00
2022-08-27T10:34:49.672Z,97119.00
2022-08-27T10:40:22.738Z,97117.00
2022-08-27T10:45:46.534Z,97127.00
2022-08-27T10:52:09.384Z,97122.00
2022-08-27T10:57:58.879Z,97118.00
2022-08-27T11:03:08.375Z,97115.00
2022-08-27T11:08:40.476Z,97113.00
2022-08-27T11:13:50.798Z,97112.00
2022-08-27T11:18:57.525Z,97120.00
2022-08-27T11:24:08.199Z,97117.00
2022-08-27T11:29:26.367Z,97113.00
2022-08-27T11:34:45.776Z,97106.00
2022-08-27T11:41:44.615Z,97104.00
2022-08-27T11:46:49.414Z,97102.00
2022-08-27T11:52:03.713Z,97119.00
2022-08-27T11:57:14.704Z,97122.00
2022-08-27T12:02:26.249Z,97116.00
2022-08-27T12:07:32.613Z,97114.00
2022-08-27T12:15:16.671Z,97114.00
2022-08-27T12:20:41.330Z,97108.00
2022-08-27T12:25:42.564Z,97109.00
2022-08-27T12:30:53.389Z,97101.00
2022-08-27T12:35:57.231Z,97106.00
2022-08-27T12:41:03.209Z,97105.00
2022-08-27T12:46:13.144Z,97087.00
2022-08-27T12:51:26.238Z,97092.00
2022-08-27T12:58:15.687Z,97087.00
2022-08-27T13:03:34.730Z,97080.00
2022-08-27T13:08:35.663Z,97080.00
2022-08-27T13:13:36.714Z,97077.00
2022-08-27T13:18:39.096Z,97085.00
2022-08-27T13:23:46.672Z,97089.00
2022-08-27T13:28:48.942Z,97094.00
2022-08-27T13:33:50.217Z,97088.00
2022-08-27T13:38:51.604Z,97100.00
2022-08-27T13:43:57.075Z,97094.00
2022-08-27T13:49:00.342Z,97090.00
2022-08-27T13:54:15.354Z,97086.00
2022-08-27T13:59:26.525Z,97083.00
2022-08-27T14:05:02.462Z,97081.00
2022-08-27T14:10:45.521Z,97075.00
2022-08-27T14:15:58.644Z,97075.00
2022-08-27T14:21:01.594Z,97072.00
2022-08-27T14:26:02.557Z,97074.00
2022-08-27T14:31:03.803Z,97076.00
2022-08-27T14:36:05.635Z,97072.00
2022-08-27T14:41:06.874Z,97066.00
2022-08-27T14:46:18.425Z,97056.00
2022-08-27T14:51:25.683Z,97065.00
2022-08-27T14:56:26.595Z,97066.00
2022-08-27T15:01:28.722Z,97077.00
2022-08-27T15:06:29.618Z,97077.00
2022-08-27T15:11:33.544Z,97089.00
2022-08-27T15:16:38.403Z,97085.00
2022-08-27T15:21:40.576Z,97089.00
2022-08-27T15:26:41.443Z,97076.00
2022-08-27T15:31:42.757Z,97077.00
2022-08-27T15:36:43.792Z,97081.00
2022-08-27T15:42:05.925Z,97081.00
2022-08-27T15:47:07.451Z,97084.00
2022-08-27T15:52:11.795Z,97080.00
2022-08-27T15:57:19.699Z,97083.00
2022-08-27T16:02:23.307Z,97079.00
2022-08-27T16:07:24.156Z,97080.00
2022-08-27T16:12:27.402Z,97078.00
2022-08-27T16:17:28.720Z,97074.00
2022-08-27T16:22:29.742Z,97074.00
2022-08-27T16:27:30.645Z,97075.00
2022-08-27T16:32:32.108Z,97079.00
2022-08-27T16:37:32.943Z,97078.00
2022-08-27T16:42:34.833Z,97071.00
2022-08-27T16:50:32.635Z,97073.00
2022-08-27T16:55:34.165Z,97070.00
2022-08-27T17:00:38.150Z,97056.00
2022-08-27T17:05:39.090Z,97072.00
2022-08-27T17:10:45.812Z,97067.00
2022-08-27T17:15:52.883Z,97068.00
2022-08-27T17:20:56.269Z,97073.00
2022-08-27T17:25:57.114Z,97077.00
2022-08-27T17:31:01.007Z,97079.00
2022-08-27T17:36:04.567Z,97074.00
2022-08-27T17:41:34.080Z,97073.00
2022-08-27T17:46:36.078Z,97071.00
2022-08-27T17:51:36.981Z,97074.00
2022-08-27T17:56:39.346Z,97082.00
2022-08-27T18:01:40.600Z,97075.00
2022-08-27T18:06:41.835Z,97070.00
2022-08-27T18:11:44.584Z,97072.00
2022-08-27T18:16:45.465Z,97090.00
2022-08-27T18:21:47.169Z,97088.00
2022-08-27T18:26:48.724Z,97095.00
2022-08-27T18:31:49.754Z,97104.00
2022-08-27T18:36:50.658Z,97102.00
2022-08-27T18:41:53.439Z,97101.00
2022-08-27T18:46:54.288Z,97101.00
2022-08-27T18:51:55.442Z,97107.00
2022-08-27T18:56:56.266Z,97109.00
2022-08-27T19:01:57.385Z,97107.00
2022-08-27T19:06:58.552Z,97112.00
2022-08-27T19:11:59.753Z,97121.00
2022-08-27T19:17:01.993Z,97121.00
2022-08-27T19:22:05.847Z,97120.00
2022-08-27T19:27:08.649Z,97130.00
2022-08-27T19:32:10.372Z,97137.00
2022-08-27T19:37:21.319Z,97138.00
2022-08-27T19:42:22.461Z,97140.00
2022-08-27T19:47:25.253Z,97148.00
2022-08-27T19:52:26.147Z,97148.00
2022-08-27T19:57:27.087Z,97157.00
2022-08-27T20:02:27.949Z,97142.00
2022-08-27T20:07:28.971Z,97145.00
2022-08-27T20:12:29.975Z,97149.00
2022-08-27T20:17:32.291Z,97156.00
2022-08-27T20:22:33.570Z,97149.00
2022-08-27T20:27:34.938Z,97160.00
2022-08-27T20:32:35.956Z,97161.00
2022-08-27T20:37:41.920Z,97164.00
2022-08-27T20:42:43.799Z,97167.00
2022-08-27T20:47:47.095Z,97179.00
2022-08-27T20:52:48.996Z,97179.00
2022-08-27T20:58:08.852Z,97181.00
2022-08-27T21:03:11.985Z,97179.00
2022-08-27T21:08:14.554Z,97188.00
2022-08-27T21:13:16.605Z,97193.00
2022-08-27T21:18:18.834Z,97191.00
2022-08-27T21:23:21.484Z,97193.00
2022-08-27T21:28:22.682Z,97202.00
2022-08-27T21:33:23.592Z,97207.00
2022-08-27T21:38:24.586Z,97204.00
2022-08-27T21:43:25.438Z,97197.00
2022-08-27T21:48:26.551Z,97198.00
2022-08-27T21:53:29.320Z,97193.00
2022-08-27T21:58:30.191Z,97206.00
2022-08-27T22:03:33.173Z,97199.00
2022-08-27T22:08:34.238Z,97195.00
2022-08-27T22:13:35.964Z,97197.00
2022-08-27T22:18:36.861Z,97203.00
2022-08-27T22:23:39.856Z,97199.00
2022-08-27T22:28:46.467Z,97197.00
2022-08-27T22:33:47.386Z,97193.00
2022-08-27T22:38:48.374Z,97193.00
2022-08-27T22:43:51.094Z,97195.00
2022-08-27T22:48:57.681Z,97197.00
2022-08-27T22:53:58.527Z,97187.00
2022-08-27T22:58:59.811Z,97198.00
2022-08-27T23:04:01.218Z,97201.00
2022-08-27T23:09:02.583Z,97194.00
2022-08-27T23:14:03.529Z,97190.00
2022-08-27T23:19:04.393Z,97183.00
2022-08-27T23:24:05.457Z,97189.00
2022-08-27T23:29:06.942Z,97183.00
2022-08-27T23:34:07.777Z,97180.00
2022-08-27T23:39:09.974Z,97184.00
2022-08-27T23:44:11.228Z,97183.00
2022-08-27T23:49:12.506Z,97194.00
2022-08-27T23:54:13.341Z,97192.00
2022-08-27T23:59:14.201Z,97201.00
